sensor_id;sensor_type;location;lat;lon;timestamp;temperature;humidity
38910;DHT22;24676;51.360;12.354;2023-09-19T00:02:02;17.70;99.90
38910;DHT22;24676;51.360;12.354;2023-09-19T00:04:49;17.60;99.90
38910;DHT22;24676;51.360;12.354;2023-09-19T00:07:33;17.50;99.90
38910;DHT22;24676;51.360;12.354;2023-09-19T00:10:21;17.50;99.90
38910;DHT22;24676;51.360;12.354;2023-09-19T00:13:09;17.40;99.90
38910;DHT22;24676;51.360;12.354;2023-09-19T00:15:57;17.40;99.90
38910;DHT22;24676;51.360;12.354;2023-09-19T00:18:42;17.30;99.90
38910;DHT22;24676;51.360;12.354;2023-09-19T00:21:26;17.30;99.90
38910;DHT22;24676;51.360;12.354;2023-09-19T00:24:11;17.30;99.90
38910;DHT22;24676;51.360;12.354;2023-09-19T00:26:56;17.30;99.90
38910;DHT22;24676;51.360;12.354;2023-09-19T00:29:42;17.20;99.90
38910;DHT22;24676;51.360;12.354;2023-09-19T00:32:26;17.20;99.90
38910;DHT22;24676;51.360;12.354;2023-09-19T00:35:16;17.20;99.90
38910;DHT22;24676;51.360;12.354;2023-09-19T00:38:00;17.20;99.90
38910;DHT22;24676;51.360;12.354;2023-09-19T00:40:45;17.20;99.90
38910;DHT22;24676;51.360;12.354;2023-09-19T00:43:29;17.20;99.90
38910;DHT22;24676;51.360;12.354;2023-09-19T00:46:18;17.10;99.90
38910;DHT22;24676;51.360;12.354;2023-09-19T00:49:03;17.10;99.90
38910;DHT22;24676;51.360;12.354;2023-09-19T00:51:47;17.10;99.90
38910;DHT22;24676;51.360;12.354;2023-09-19T00:54:33;17.10;99.90
38910;DHT22;24676;51.360;12.354;2023-09-19T00:57:18;17.00;99.90
38910;DHT22;24676;51.360;12.354;2023-09-19T01:00:05;17.00;99.90
38910;DHT22;24676;51.360;12.354;2023-09-19T01:02:50;16.90;99.90
38910;DHT22;24676;51.360;12.354;2023-09-19T01:05:34;16.90;99.90
38910;DHT22;24676;51.360;12.354;2023-09-19T01:08:20;16.90;99.90
38910;DHT22;24676;51.360;12.354;2023-09-19T01:11:20;16.80;99.90
38910;DHT22;24676;51.360;12.354;2023-09-19T01:14:40;16.80;99.90
38910;DHT22;24676;51.360;12.354;2023-09-19T01:17:30;16.80;99.90
38910;DHT22;24676;51.360;12.354;2023-09-19T01:20:21;16.80;99.90
38910;DHT22;24676;51.360;12.354;2023-09-19T01:29:34;16.80;99.90
38910;DHT22;24676;51.360;12.354;2023-09-19T01:32:20;16.80;99.90
38910;DHT22;24676;51.360;12.354;2023-09-19T01:35:09;16.80;99.90
38910;DHT22;24676;51.360;12.354;2023-09-19T01:37:56;16.80;99.90
38910;DHT22;24676;51.360;12.354;2023-09-19T01:40:52;16.80;99.90
38910;DHT22;24676;51.360;12.354;2023-09-19T01:43:46;16.70;99.90
38910;DHT22;24676;51.360;12.354;2023-09-19T01:46:34;16.60;99.90
38910;DHT22;24676;51.360;12.354;2023-09-19T01:49:40;16.60;99.90
38910;DHT22;24676;51.360;12.354;2023-09-19T01:52:30;16.60;99.90
38910;DHT22;24676;51.360;12.354;2023-09-19T01:55:17;16.60;99.90
38910;DHT22;24676;51.360;12.354;2023-09-19T01:59:04;16.50;99.90
38910;DHT22;24676;51.360;12.354;2023-09-19T02:01:28;16.50;99.90
38910;DHT22;24676;51.360;12.354;2023-09-19T02:04:12;16.50;99.90
38910;DHT22;24676;51.360;12.354;2023-09-19T02:06:56;16.50;99.90
38910;DHT22;24676;51.360;12.354;2023-09-19T02:09:41;16.50;99.90
38910;DHT22;24676;51.360;12.354;2023-09-19T02:12:27;16.60;99.90
38910;DHT22;24676;51.360;12.354;2023-09-19T02:15:11;16.70;99.90
38910;DHT22;24676;51.360;12.354;2023-09-19T02:17:55;16.70;99.90
38910;DHT22;24676;51.360;12.354;2023-09-19T02:20:40;16.70;99.90
38910;DHT22;24676;51.360;12.354;2023-09-19T02:23:24;16.70;99.90
38910;DHT22;24676;51.360;12.354;2023-09-19T02:26:09;16.70;99.90
38910;DHT22;24676;51.360;12.354;2023-09-19T02:28:55;16.70;99.90
38910;DHT22;24676;51.360;12.354;2023-09-19T02:31:39;16.70;99.90
38910;DHT22;24676;51.360;12.354;2023-09-19T02:34:23;16.70;99.90
38910;DHT22;24676;51.360;12.354;2023-09-19T02:37:10;16.70;99.90
38910;DHT22;24676;51.360;12.354;2023-09-19T02:39:54;16.70;99.90
38910;DHT22;24676;51.360;12.354;2023-09-19T02:42:38;16.70;99.90
38910;DHT22;24676;51.360;12.354;2023-09-19T02:45:22;16.80;99.90
38910;DHT22;24676;51.360;12.354;2023-09-19T02:48:08;16.90;99.90
38910;DHT22;24676;51.360;12.354;2023-09-19T02:50:52;17.00;99.90
38910;DHT22;24676;51.360;12.354;2023-09-19T02:53:36;17.10;99.90
38910;DHT22;24676;51.360;12.354;2023-09-19T02:56:21;17.10;99.90
38910;DHT22;24676;51.360;12.354;2023-09-19T02:59:06;17.20;99.90
38910;DHT22;24676;51.360;12.354;2023-09-19T03:01:51;17.20;99.90
38910;DHT22;24676;51.360;12.354;2023-09-19T03:04:35;17.20;99.90
38910;DHT22;24676;51.360;12.354;2023-09-19T03:07:20;17.20;99.90
38910;DHT22;24676;51.360;12.354;2023-09-19T03:10:08;17.30;99.90
38910;DHT22;24676;51.360;12.354;2023-09-19T03:12:53;17.30;99.90
38910;DHT22;24676;51.360;12.354;2023-09-19T03:15:41;17.30;99.90
38910;DHT22;24676;51.360;12.354;2023-09-19T03:18:27;17.30;99.90
38910;DHT22;24676;51.360;12.354;2023-09-19T03:21:11;17.30;99.90
38910;DHT22;24676;51.360;12.354;2023-09-19T03:23:55;17.30;99.90
38910;DHT22;24676;51.360;12.354;2023-09-19T03:26:40;17.30;99.90
38910;DHT22;24676;51.360;12.354;2023-09-19T03:29:24;17.30;99.90
38910;DHT22;24676;51.360;12.354;2023-09-19T03:32:09;17.30;99.90
38910;DHT22;24676;51.360;12.354;2023-09-19T03:34:54;17.30;99.90
38910;DHT22;24676;51.360;12.354;2023-09-19T03:37:38;17.20;99.90
38910;DHT22;24676;51.360;12.354;2023-09-19T03:40:23;17.20;99.90
38910;DHT22;24676;51.360;12.354;2023-09-19T03:43:09;17.10;99.90
38910;DHT22;24676;51.360;12.354;2023-09-19T03:45:53;17.10;99.90
38910;DHT22;24676;51.360;12.354;2023-09-19T03:48:41;17.10;99.90
38910;DHT22;24676;51.360;12.354;2023-09-19T03:51:26;17.00;99.90
38910;DHT22;24676;51.360;12.354;2023-09-19T03:54:10;17.00;99.90
38910;DHT22;24676;51.360;12.354;2023-09-19T03:56:54;17.00;99.90
38910;DHT22;24676;51.360;12.354;2023-09-19T03:59:38;17.00;99.90
38910;DHT22;24676;51.360;12.354;2023-09-19T04:02:23;16.90;99.90
38910;DHT22;24676;51.360;12.354;2023-09-19T04:05:08;16.90;99.90
38910;DHT22;24676;51.360;12.354;2023-09-19T04:07:53;16.90;99.90
38910;DHT22;24676;51.360;12.354;2023-09-19T04:10:37;16.80;99.90
38910;DHT22;24676;51.360;12.354;2023-09-19T04:13:22;16.80;99.90
38910;DHT22;24676;51.360;12.354;2023-09-19T04:16:06;16.80;99.90
38910;DHT22;24676;51.360;12.354;2023-09-19T04:18:51;16.70;99.90
38910;DHT22;24676;51.360;12.354;2023-09-19T04:21:35;16.70;99.90
38910;DHT22;24676;51.360;12.354;2023-09-19T04:24:19;16.70;99.90
38910;DHT22;24676;51.360;12.354;2023-09-19T04:27:04;16.70;99.90
38910;DHT22;24676;51.360;12.354;2023-09-19T04:29:48;16.70;99.90
38910;DHT22;24676;51.360;12.354;2023-09-19T04:32:34;16.70;99.90
38910;DHT22;24676;51.360;12.354;2023-09-19T04:35:20;16.60;99.90
38910;DHT22;24676;51.360;12.354;2023-09-19T04:38:04;16.60;99.90
38910;DHT22;24676;51.360;12.354;2023-09-19T04:40:57;16.60;99.90
38910;DHT22;24676;51.360;12.354;2023-09-19T04:43:42;16.60;99.90
38910;DHT22;24676;51.360;12.354;2023-09-19T04:46:26;16.60;99.90
38910;DHT22;24676;51.360;12.354;2023-09-19T04:49:11;16.70;99.90
38910;DHT22;24676;51.360;12.354;2023-09-19T04:51:55;16.70;99.90
38910;DHT22;24676;51.360;12.354;2023-09-19T04:54:40;16.70;99.90
38910;DHT22;24676;51.360;12.354;2023-09-19T04:57:25;16.70;99.90
38910;DHT22;24676;51.360;12.354;2023-09-19T05:00:11;16.70;99.90
38910;DHT22;24676;51.360;12.354;2023-09-19T05:02:57;16.70;99.90
38910;DHT22;24676;51.360;12.354;2023-09-19T05:05:41;16.70;99.90
38910;DHT22;24676;51.360;12.354;2023-09-19T05:08:26;16.70;99.90
38910;DHT22;24676;51.360;12.354;2023-09-19T05:11:11;16.60;99.90
38910;DHT22;24676;51.360;12.354;2023-09-19T05:13:55;16.60;99.90
38910;DHT22;24676;51.360;12.354;2023-09-19T05:16:40;16.60;99.90
38910;DHT22;24676;51.360;12.354;2023-09-19T05:19:24;16.60;99.90
38910;DHT22;24676;51.360;12.354;2023-09-19T05:22:08;16.60;99.90
38910;DHT22;24676;51.360;12.354;2023-09-19T05:24:52;16.60;99.90
38910;DHT22;24676;51.360;12.354;2023-09-19T05:27:36;16.60;99.90
38910;DHT22;24676;51.360;12.354;2023-09-19T05:30:20;16.60;99.90
38910;DHT22;24676;51.360;12.354;2023-09-19T05:33:06;16.60;99.90
38910;DHT22;24676;51.360;12.354;2023-09-19T05:35:51;16.50;99.90
38910;DHT22;24676;51.360;12.354;2023-09-19T05:38:36;16.60;99.90
38910;DHT22;24676;51.360;12.354;2023-09-19T05:41:20;16.60;99.90
38910;DHT22;24676;51.360;12.354;2023-09-19T05:44:05;16.60;99.90
38910;DHT22;24676;51.360;12.354;2023-09-19T05:46:50;16.60;99.90
38910;DHT22;24676;51.360;12.354;2023-09-19T05:49:36;16.60;99.90
38910;DHT22;24676;51.360;12.354;2023-09-19T05:52:23;16.60;99.90
38910;DHT22;24676;51.360;12.354;2023-09-19T05:55:07;16.70;99.90
38910;DHT22;24676;51.360;12.354;2023-09-19T05:57:52;16.70;99.90
38910;DHT22;24676;51.360;12.354;2023-09-19T06:00:37;16.70;99.90
38910;DHT22;24676;51.360;12.354;2023-09-19T06:03:22;16.70;99.90
38910;DHT22;24676;51.360;12.354;2023-09-19T06:06:06;16.70;99.90
38910;DHT22;24676;51.360;12.354;2023-09-19T06:08:50;16.80;99.90
38910;DHT22;24676;51.360;12.354;2023-09-19T06:11:35;16.90;99.90
38910;DHT22;24676;51.360;12.354;2023-09-19T06:14:19;17.30;99.90
38910;DHT22;24676;51.360;12.354;2023-09-19T06:17:03;18.00;99.90
38910;DHT22;24676;51.360;12.354;2023-09-19T06:19:47;19.70;99.90
38910;DHT22;24676;51.360;12.354;2023-09-19T06:22:34;22.30;99.90
38910;DHT22;24676;51.360;12.354;2023-09-19T06:25:18;24.90;85.30
38910;DHT22;24676;51.360;12.354;2023-09-19T06:28:06;27.00;66.40
38910;DHT22;24676;51.360;12.354;2023-09-19T06:30:52;29.00;55.80
38910;DHT22;24676;51.360;12.354;2023-09-19T06:33:37;30.40;50.60
38910;DHT22;24676;51.360;12.354;2023-09-19T06:36:24;31.10;47.40
38910;DHT22;24676;51.360;12.354;2023-09-19T06:39:08;32.00;45.90
38910;DHT22;24676;51.360;12.354;2023-09-19T06:41:54;32.50;43.50
38910;DHT22;24676;51.360;12.354;2023-09-19T06:44:38;33.20;42.30
38910;DHT22;24676;51.360;12.354;2023-09-19T06:47:23;33.40;40.90
38910;DHT22;24676;51.360;12.354;2023-09-19T06:50:09;33.60;40.80
38910;DHT22;24676;51.360;12.354;2023-09-19T06:52:57;33.90;39.70
38910;DHT22;24676;51.360;12.354;2023-09-19T06:55:43;33.50;40.30
38910;DHT22;24676;51.360;12.354;2023-09-19T06:58:27;31.10;43.60
38910;DHT22;24676;51.360;12.354;2023-09-19T07:01:12;30.70;44.30
38910;DHT22;24676;51.360;12.354;2023-09-19T07:03:59;31.30;42.90
38910;DHT22;24676;51.360;12.354;2023-09-19T07:06:43;31.50;42.30
38910;DHT22;24676;51.360;12.354;2023-09-19T07:09:30;31.50;42.50
38910;DHT22;24676;51.360;12.354;2023-09-19T07:12:14;32.20;42.10
38910;DHT22;24676;51.360;12.354;2023-09-19T07:14:58;32.00;40.80
38910;DHT22;24676;51.360;12.354;2023-09-19T07:17:43;31.90;42.10
38910;DHT22;24676;51.360;12.354;2023-09-19T07:20:27;31.00;41.80
38910;DHT22;24676;51.360;12.354;2023-09-19T07:23:14;30.30;43.80
38910;DHT22;24676;51.360;12.354;2023-09-19T07:25:58;29.20;44.10
38910;DHT22;24676;51.360;12.354;2023-09-19T07:28:43;27.00;47.30
38910;DHT22;24676;51.360;12.354;2023-09-19T07:31:28;25.60;50.60
38910;DHT22;24676;51.360;12.354;2023-09-19T07:34:13;23.90;53.40
38910;DHT22;24676;51.360;12.354;2023-09-19T07:36:57;22.70;56.80
38910;DHT22;24676;51.360;12.354;2023-09-19T07:39:42;23.20;58.10
38910;DHT22;24676;51.360;12.354;2023-09-19T07:42:27;25.40;54.30
38910;DHT22;24676;51.360;12.354;2023-09-19T07:45:11;27.00;50.60
38910;DHT22;24676;51.360;12.354;2023-09-19T07:47:58;27.40;48.30
38910;DHT22;24676;51.360;12.354;2023-09-19T07:50:45;28.30;47.70
38910;DHT22;24676;51.360;12.354;2023-09-19T07:53:29;29.20;45.50
38910;DHT22;24676;51.360;12.354;2023-09-19T07:56:14;28.20;45.80
38910;DHT22;24676;51.360;12.354;2023-09-19T07:58:59;26.60;48.10
38910;DHT22;24676;51.360;12.354;2023-09-19T08:01:43;25.90;49.80
38910;DHT22;24676;51.360;12.354;2023-09-19T08:04:28;26.40;49.30
38910;DHT22;24676;51.360;12.354;2023-09-19T08:07:13;25.50;50.20
38910;DHT22;24676;51.360;12.354;2023-09-19T08:09:57;24.80;52.40
38910;DHT22;24676;51.360;12.354;2023-09-19T08:12:43;23.70;54.60
38910;DHT22;24676;51.360;12.354;2023-09-19T08:15:30;22.30;57.30
38910;DHT22;24676;51.360;12.354;2023-09-19T08:18:15;21.30;60.50
38910;DHT22;24676;51.360;12.354;2023-09-19T08:20:59;20.70;63.70
38910;DHT22;24676;51.360;12.354;2023-09-19T08:23:44;20.50;66.40
38910;DHT22;24676;51.360;12.354;2023-09-19T08:26:30;20.40;68.50
38910;DHT22;24676;51.360;12.354;2023-09-19T08:29:15;20.40;70.50
38910;DHT22;24676;51.360;12.354;2023-09-19T08:31:58;20.20;72.80
38910;DHT22;24676;51.360;12.354;2023-09-19T08:34:43;20.00;74.80
38910;DHT22;24676;51.360;12.354;2023-09-19T08:37:27;19.90;77.30
38910;DHT22;24676;51.360;12.354;2023-09-19T08:40:11;19.80;79.80
38910;DHT22;24676;51.360;12.354;2023-09-19T08:42:57;19.90;80.30
38910;DHT22;24676;51.360;12.354;2023-09-19T08:45:41;20.00;81.60
38910;DHT22;24676;51.360;12.354;2023-09-19T08:48:27;20.10;80.50
38910;DHT22;24676;51.360;12.354;2023-09-19T08:51:26;20.40;81.20
38910;DHT22;24676;51.360;12.354;2023-09-19T08:57:06;20.50;78.30
38910;DHT22;24676;51.360;12.354;2023-09-19T08:59:56;20.70;79.60
38910;DHT22;24676;51.360;12.354;2023-09-19T09:02:42;20.90;78.80
38910;DHT22;24676;51.360;12.354;2023-09-19T09:05:27;21.20;78.40
38910;DHT22;24676;51.360;12.354;2023-09-19T09:08:12;21.50;75.40
38910;DHT22;24676;51.360;12.354;2023-09-19T09:10:58;21.70;73.50
38910;DHT22;24676;51.360;12.354;2023-09-19T09:13:47;21.60;70.70
38910;DHT22;24676;51.360;12.354;2023-09-19T09:16:31;21.40;69.20
38910;DHT22;24676;51.360;12.354;2023-09-19T09:19:15;21.50;69.70
38910;DHT22;24676;51.360;12.354;2023-09-19T09:22:09;21.50;66.90
38910;DHT22;24676;51.360;12.354;2023-09-19T09:24:55;21.70;65.30
38910;DHT22;24676;51.360;12.354;2023-09-19T09:27:41;21.70;63.80
38910;DHT22;24676;51.360;12.354;2023-09-19T09:30:34;21.90;63.90
38910;DHT22;24676;51.360;12.354;2023-09-19T09:33:19;22.10;64.10
38910;DHT22;24676;51.360;12.354;2023-09-19T09:36:04;22.30;59.20
38910;DHT22;24676;51.360;12.354;2023-09-19T09:38:50;22.40;56.40
38910;DHT22;24676;51.360;12.354;2023-09-19T09:41:39;22.40;55.10
38910;DHT22;24676;51.360;12.354;2023-09-19T09:44:23;22.40;55.90
38910;DHT22;24676;51.360;12.354;2023-09-19T09:47:08;22.50;56.50
38910;DHT22;24676;51.360;12.354;2023-09-19T09:50:11;22.70;56.90
38910;DHT22;24676;51.360;12.354;2023-09-19T09:53:01;23.10;55.10
38910;DHT22;24676;51.360;12.354;2023-09-19T09:56:04;23.40;54.50
38910;DHT22;24676;51.360;12.354;2023-09-19T09:58:53;23.60;52.80
38910;DHT22;24676;51.360;12.354;2023-09-19T10:01:48;23.20;51.90
38910;DHT22;24676;51.360;12.354;2023-09-19T10:04:33;22.80;50.60
38910;DHT22;24676;51.360;12.354;2023-09-19T10:07:38;22.80;51.80
38910;DHT22;24676;51.360;12.354;2023-09-19T10:10:41;22.60;53.20
38910;DHT22;24676;51.360;12.354;2023-09-19T10:13:26;22.70;53.90
38910;DHT22;24676;51.360;12.354;2023-09-19T10:16:13;22.60;54.10
38910;DHT22;24676;51.360;12.354;2023-09-19T10:19:02;22.30;54.70
38910;DHT22;24676;51.360;12.354;2023-09-19T10:21:50;22.10;54.60
38910;DHT22;24676;51.360;12.354;2023-09-19T10:24:35;22.10;54.70
38910;DHT22;24676;51.360;12.354;2023-09-19T10:27:21;22.10;54.30
38910;DHT22;24676;51.360;12.354;2023-09-19T10:30:10;22.20;54.60
38910;DHT22;24676;51.360;12.354;2023-09-19T10:33:04;22.20;54.40
38910;DHT22;24676;51.360;12.354;2023-09-19T10:35:52;22.40;54.30
38910;DHT22;24676;51.360;12.354;2023-09-19T10:38:43;22.80;54.80
38910;DHT22;24676;51.360;12.354;2023-09-19T10:41:30;22.80;53.30
38910;DHT22;24676;51.360;12.354;2023-09-19T10:44:22;22.60;53.00
38910;DHT22;24676;51.360;12.354;2023-09-19T10:47:08;22.50;53.90
38910;DHT22;24676;51.360;12.354;2023-09-19T10:49:53;22.40;54.30
38910;DHT22;24676;51.360;12.354;2023-09-19T10:52:40;22.60;54.30
38910;DHT22;24676;51.360;12.354;2023-09-19T10:55:28;22.80;52.20
38910;DHT22;24676;51.360;12.354;2023-09-19T10:58:12;22.70;51.80
38910;DHT22;24676;51.360;12.354;2023-09-19T11:01:08;23.00;53.10
38910;DHT22;24676;51.360;12.354;2023-09-19T11:04:22;23.40;54.70
38910;DHT22;24676;51.360;12.354;2023-09-19T11:07:12;23.40;51.40
38910;DHT22;24676;51.360;12.354;2023-09-19T11:09:59;23.40;50.70
38910;DHT22;24676;51.360;12.354;2023-09-19T11:12:48;23.10;50.70
38910;DHT22;24676;51.360;12.354;2023-09-19T11:27:09;23.10;50.70
38910;DHT22;24676;51.360;12.354;2023-09-19T11:30:25;23.00;49.10
38910;DHT22;24676;51.360;12.354;2023-09-19T11:36:16;23.20;48.70
38910;DHT22;24676;51.360;12.354;2023-09-19T11:39:02;23.10;49.30
38910;DHT22;24676;51.360;12.354;2023-09-19T11:41:53;23.20;49.50
38910;DHT22;24676;51.360;12.354;2023-09-19T11:44:40;23.40;50.60
38910;DHT22;24676;51.360;12.354;2023-09-19T11:47:25;23.20;50.10
38910;DHT22;24676;51.360;12.354;2023-09-19T11:50:10;23.20;50.00
38910;DHT22;24676;51.360;12.354;2023-09-19T11:52:55;23.10;50.60
38910;DHT22;24676;51.360;12.354;2023-09-19T11:55:40;23.30;50.10
38910;DHT22;24676;51.360;12.354;2023-09-19T11:58:27;23.30;51.10
38910;DHT22;24676;51.360;12.354;2023-09-19T12:01:14;23.10;49.30
38910;DHT22;24676;51.360;12.354;2023-09-19T12:04:03;23.00;50.60
38910;DHT22;24676;51.360;12.354;2023-09-19T12:06:56;22.90;49.80
38910;DHT22;24676;51.360;12.354;2023-09-19T12:10:04;22.90;50.20
38910;DHT22;24676;51.360;12.354;2023-09-19T12:12:50;23.10;50.80
38910;DHT22;24676;51.360;12.354;2023-09-19T12:15:36;23.10;50.70
38910;DHT22;24676;51.360;12.354;2023-09-19T12:18:29;23.40;50.80
38910;DHT22;24676;51.360;12.354;2023-09-19T12:21:24;23.50;49.40
38910;DHT22;24676;51.360;12.354;2023-09-19T12:24:12;23.30;49.50
38910;DHT22;24676;51.360;12.354;2023-09-19T12:27:04;23.10;50.30
38910;DHT22;24676;51.360;12.354;2023-09-19T12:29:49;23.30;51.80
38910;DHT22;24676;51.360;12.354;2023-09-19T12:32:37;23.30;50.80
38910;DHT22;24676;51.360;12.354;2023-09-19T12:35:32;22.80;50.50
38910;DHT22;24676;51.360;12.354;2023-09-19T12:38:25;22.50;51.10
38910;DHT22;24676;51.360;12.354;2023-09-19T12:41:12;22.50;49.80
38910;DHT22;24676;51.360;12.354;2023-09-19T12:43:56;22.50;50.70
38910;DHT22;24676;51.360;12.354;2023-09-19T12:46:42;22.80;51.70
38910;DHT22;24676;51.360;12.354;2023-09-19T12:49:26;22.90;51.70
38910;DHT22;24676;51.360;12.354;2023-09-19T12:52:11;22.80;50.80
38910;DHT22;24676;51.360;12.354;2023-09-19T12:54:55;22.70;50.50
38910;DHT22;24676;51.360;12.354;2023-09-19T12:57:41;22.70;51.00
38910;DHT22;24676;51.360;12.354;2023-09-19T13:00:32;22.60;49.80
38910;DHT22;24676;51.360;12.354;2023-09-19T13:03:25;22.50;50.10
38910;DHT22;24676;51.360;12.354;2023-09-19T13:06:10;22.40;49.50
38910;DHT22;24676;51.360;12.354;2023-09-19T13:09:07;22.40;50.10
38910;DHT22;24676;51.360;12.354;2023-09-19T13:11:51;22.30;50.50
38910;DHT22;24676;51.360;12.354;2023-09-19T13:14:37;22.30;51.20
38910;DHT22;24676;51.360;12.354;2023-09-19T13:17:24;22.60;50.50
38910;DHT22;24676;51.360;12.354;2023-09-19T13:20:24;22.70;50.40
38910;DHT22;24676;51.360;12.354;2023-09-19T13:23:26;22.80;50.00
38910;DHT22;24676;51.360;12.354;2023-09-19T13:26:10;22.70;50.10
38910;DHT22;24676;51.360;12.354;2023-09-19T13:28:54;22.50;50.60
38910;DHT22;24676;51.360;12.354;2023-09-19T13:31:38;22.40;51.70
38910;DHT22;24676;51.360;12.354;2023-09-19T13:34:25;22.20;52.00
38910;DHT22;24676;51.360;12.354;2023-09-19T13:37:10;22.10;52.30
38910;DHT22;24676;51.360;12.354;2023-09-19T13:39:57;22.10;52.20
38910;DHT22;24676;51.360;12.354;2023-09-19T13:42:41;22.10;53.40
38910;DHT22;24676;51.360;12.354;2023-09-19T13:45:25;22.20;53.20
38910;DHT22;24676;51.360;12.354;2023-09-19T13:48:10;22.10;52.50
38910;DHT22;24676;51.360;12.354;2023-09-19T13:50:57;22.00;52.60
38910;DHT22;24676;51.360;12.354;2023-09-19T13:53:42;22.10;52.70
38910;DHT22;24676;51.360;12.354;2023-09-19T13:56:26;22.30;53.50
38910;DHT22;24676;51.360;12.354;2023-09-19T13:59:15;22.40;52.90
38910;DHT22;24676;51.360;12.354;2023-09-19T14:01:59;22.40;51.80
38910;DHT22;24676;51.360;12.354;2023-09-19T14:04:44;22.40;52.00
38910;DHT22;24676;51.360;12.354;2023-09-19T14:07:28;22.50;51.80
38910;DHT22;24676;51.360;12.354;2023-09-19T14:10:12;22.40;51.40
38910;DHT22;24676;51.360;12.354;2023-09-19T14:12:57;22.30;51.10
38910;DHT22;24676;51.360;12.354;2023-09-19T14:15:43;22.40;51.10
38910;DHT22;24676;51.360;12.354;2023-09-19T14:18:27;22.40;51.20
38910;DHT22;24676;51.360;12.354;2023-09-19T14:21:11;22.50;51.20
38910;DHT22;24676;51.360;12.354;2023-09-19T14:23:56;22.50;50.20
38910;DHT22;24676;51.360;12.354;2023-09-19T14:26:40;22.50;51.60
38910;DHT22;24676;51.360;12.354;2023-09-19T14:29:24;22.40;50.80
38910;DHT22;24676;51.360;12.354;2023-09-19T14:32:08;22.30;51.40
38910;DHT22;24676;51.360;12.354;2023-09-19T14:34:52;22.10;49.90
38910;DHT22;24676;51.360;12.354;2023-09-19T14:37:36;22.10;50.30
38910;DHT22;24676;51.360;12.354;2023-09-19T14:40:22;22.10;50.60
38910;DHT22;24676;51.360;12.354;2023-09-19T14:43:06;22.10;50.40
38910;DHT22;24676;51.360;12.354;2023-09-19T14:45:52;22.10;51.80
38910;DHT22;24676;51.360;12.354;2023-09-19T14:48:37;22.00;52.20
38910;DHT22;24676;51.360;12.354;2023-09-19T14:51:21;22.00;52.70
38910;DHT22;24676;51.360;12.354;2023-09-19T14:54:05;22.00;51.90
38910;DHT22;24676;51.360;12.354;2023-09-19T14:56:51;22.00;52.60
38910;DHT22;24676;51.360;12.354;2023-09-19T14:59:48;21.90;52.50
38910;DHT22;24676;51.360;12.354;2023-09-19T15:02:32;21.90;52.70
38910;DHT22;24676;51.360;12.354;2023-09-19T15:05:17;21.80;52.20
38910;DHT22;24676;51.360;12.354;2023-09-19T15:08:02;21.70;52.20
38910;DHT22;24676;51.360;12.354;2023-09-19T15:10:50;21.60;53.00
38910;DHT22;24676;51.360;12.354;2023-09-19T15:13:36;21.60;53.60
38910;DHT22;24676;51.360;12.354;2023-09-19T15:16:20;21.60;53.70
38910;DHT22;24676;51.360;12.354;2023-09-19T15:19:04;21.60;52.80
38910;DHT22;24676;51.360;12.354;2023-09-19T15:21:49;21.60;51.40
38910;DHT22;24676;51.360;12.354;2023-09-19T15:24:33;21.70;51.40
38910;DHT22;24676;51.360;12.354;2023-09-19T15:27:17;21.70;50.10
38910;DHT22;24676;51.360;12.354;2023-09-19T15:30:04;21.70;49.40
38910;DHT22;24676;51.360;12.354;2023-09-19T15:32:48;21.60;50.60
38910;DHT22;24676;51.360;12.354;2023-09-19T15:35:33;21.60;50.30
38910;DHT22;24676;51.360;12.354;2023-09-19T15:38:17;21.60;50.20
38910;DHT22;24676;51.360;12.354;2023-09-19T15:41:01;21.50;50.30
38910;DHT22;24676;51.360;12.354;2023-09-19T15:43:48;21.30;49.80
38910;DHT22;24676;51.360;12.354;2023-09-19T15:46:32;21.30;49.80
38910;DHT22;24676;51.360;12.354;2023-09-19T15:49:20;21.20;50.00
38910;DHT22;24676;51.360;12.354;2023-09-19T15:52:04;21.10;50.40
38910;DHT22;24676;51.360;12.354;2023-09-19T15:54:49;21.00;50.00
38910;DHT22;24676;51.360;12.354;2023-09-19T15:57:38;20.90;50.80
38910;DHT22;24676;51.360;12.354;2023-09-19T16:00:22;20.90;52.00
38910;DHT22;24676;51.360;12.354;2023-09-19T16:03:07;20.80;52.10
38910;DHT22;24676;51.360;12.354;2023-09-19T16:05:51;20.80;52.10
38910;DHT22;24676;51.360;12.354;2023-09-19T16:08:35;20.70;51.10
38910;DHT22;24676;51.360;12.354;2023-09-19T16:11:22;20.70;51.80
38910;DHT22;24676;51.360;12.354;2023-09-19T16:14:06;20.60;51.90
38910;DHT22;24676;51.360;12.354;2023-09-19T16:16:51;20.60;51.90
38910;DHT22;24676;51.360;12.354;2023-09-19T16:19:35;20.50;52.00
38910;DHT22;24676;51.360;12.354;2023-09-19T16:22:20;20.50;52.80
38910;DHT22;24676;51.360;12.354;2023-09-19T16:25:04;20.40;53.20
38910;DHT22;24676;51.360;12.354;2023-09-19T16:27:48;20.30;52.90
38910;DHT22;24676;51.360;12.354;2023-09-19T16:30:32;20.20;53.50
38910;DHT22;24676;51.360;12.354;2023-09-19T16:33:18;20.20;53.30
38910;DHT22;24676;51.360;12.354;2023-09-19T16:36:02;20.10;53.90
38910;DHT22;24676;51.360;12.354;2023-09-19T16:38:47;20.00;53.80
38910;DHT22;24676;51.360;12.354;2023-09-19T16:41:34;19.90;53.90
38910;DHT22;24676;51.360;12.354;2023-09-19T16:44:18;19.80;54.50
38910;DHT22;24676;51.360;12.354;2023-09-19T16:47:04;19.80;55.00
38910;DHT22;24676;51.360;12.354;2023-09-19T16:49:48;19.60;55.40
38910;DHT22;24676;51.360;12.354;2023-09-19T16:52:33;19.50;55.90
38910;DHT22;24676;51.360;12.354;2023-09-19T16:55:18;19.40;55.40
38910;DHT22;24676;51.360;12.354;2023-09-19T16:58:05;19.40;56.20
38910;DHT22;24676;51.360;12.354;2023-09-19T17:00:49;19.30;56.10
38910;DHT22;24676;51.360;12.354;2023-09-19T17:03:33;19.20;56.40
38910;DHT22;24676;51.360;12.354;2023-09-19T17:06:19;19.10;56.90
38910;DHT22;24676;51.360;12.354;2023-09-19T17:09:05;19.00;57.30
38910;DHT22;24676;51.360;12.354;2023-09-19T17:11:50;18.90;57.60
38910;DHT22;24676;51.360;12.354;2023-09-19T17:14:34;18.80;58.20
38910;DHT22;24676;51.360;12.354;2023-09-19T17:17:19;18.70;59.50
38910;DHT22;24676;51.360;12.354;2023-09-19T17:20:03;18.60;59.40
38910;DHT22;24676;51.360;12.354;2023-09-19T17:22:47;18.50;59.90
38910;DHT22;24676;51.360;12.354;2023-09-19T17:25:32;18.40;60.90
38910;DHT22;24676;51.360;12.354;2023-09-19T17:28:17;18.30;61.40
38910;DHT22;24676;51.360;12.354;2023-09-19T17:31:01;18.20;61.90
38910;DHT22;24676;51.360;12.354;2023-09-19T17:33:48;18.10;63.30
38910;DHT22;24676;51.360;12.354;2023-09-19T17:36:32;18.00;63.70
38910;DHT22;24676;51.360;12.354;2023-09-19T17:39:18;17.90;63.30